Time;durP1;ratioP1;P1;durP2;ratioP2;P2;SDS_P1;SDS_P2;PMS_P1;PMS_P2;Temp;Humidity;BMP_temperature;BMP_pressure;BME280_temperature;BME280_humidity;BME280_pressure;Samples;Min_cycle;Max_cycle;Signal;HPM_P1;HPM_P2
2022/01/06 00:02:15;;;;;;;31.50;9.50;;;;;;;6.13;100.00;100442.38;8464006;28;20036;-63
2022/01/06 00:06:15;;;;;;;23.23;8.82;;;;;;;6.06;100.00;100446.50;8464242;28;20119;-63
2022/01/06 00:10:16;;;;;;;20.92;8.90;;;;;;;5.99;100.00;100442.56;8463286;28;20096;-62
2022/01/06 00:14:34;;;;;;;30.17;8.05;;;;;;;5.93;100.00;100445.69;8463364;28;20042;-63
2022/01/06 00:23:04;;;;;;;27.25;7.95;;;;;;;5.84;100.00;100449.06;8432211;28;20032;-63
2022/01/06 00:23:42;;;;;;;27.67;7.80;;;;;;;5.84;100.00;100455.28;8429887;28;20047;-62
2022/01/06 00:27:15;;;;;;;26.02;6.20;;;;;;;5.80;100.00;100452.91;8429404;28;20556;-63
2022/01/06 00:31:15;;;;;;;19.05;5.20;;;;;;;5.78;100.00;100447.66;8445646;28;20376;-63
2022/01/06 00:35:16;;;;;;;15.20;4.28;;;;;;;5.78;100.00;100460.19;8446520;28;20095;-63
2022/01/06 00:39:16;;;;;;;16.85;5.10;;;;;;;5.75;100.00;100473.84;8491315;27;20118;-63
2022/01/06 00:43:17;;;;;;;24.83;5.80;;;;;;;5.74;100.00;100472.97;8496610;27;20031;-63
2022/01/06 00:47:20;;;;;;;22.30;6.15;;;;;;;5.77;100.00;100472.75;8477434;27;20106;-62
2022/01/06 00:51:21;;;;;;;18.13;5.10;;;;;;;5.81;100.00;100479.66;8473445;27;20498;-62
2022/01/06 00:55:22;;;;;;;18.15;3.47;;;;;;;5.83;100.00;100487.59;8461988;28;20028;-62
2022/01/06 00:59:22;;;;;;;20.63;3.58;;;;;;;5.84;100.00;100473.19;8461999;28;20035;-62
2022/01/06 01:03:23;;;;;;;22.90;3.97;;;;;;;5.87;100.00;100483.72;8458566;28;20267;-62
2022/01/06 01:07:23;;;;;;;22.95;3.72;;;;;;;5.94;100.00;100491.19;8460145;28;20115;-62
2022/01/06 01:11:24;;;;;;;18.08;3.20;;;;;;;5.93;100.00;100499.34;8441618;28;20125;-62
2022/01/06 01:15:26;;;;;;;19.42;3.33;;;;;;;5.94;100.00;100506.44;8456270;28;20035;-62
2022/01/06 01:19:29;;;;;;;20.95;3.53;;;;;;;5.94;100.00;100511.78;8433296;28;20053;-63
2022/01/06 01:23:29;;;;;;;27.80;3.95;;;;;;;5.94;100.00;100517.16;8454705;28;20042;-63
2022/01/06 01:27:35;;;;;;;20.35;3.35;;;;;;;5.89;100.00;100516.66;8435970;28;20031;-63
2022/01/06 01:31:43;;;;;;;19.70;3.80;;;;;;;5.74;100.00;100521.25;8460684;28;20116;-63
2022/01/06 01:35:43;;;;;;;19.73;3.85;;;;;;;5.85;100.00;100528.56;8444247;28;20036;-63
2022/01/06 01:39:43;;;;;;;18.90;4.15;;;;;;;5.76;100.00;100529.19;8493515;27;20045;-63
2022/01/06 01:43:46;;;;;;;30.63;4.68;;;;;;;5.64;100.00;100532.72;8494213;27;20035;-63
2022/01/06 01:47:47;;;;;;;16.50;3.08;;;;;;;5.53;100.00;100535.34;8494269;27;20106;-63
2022/01/06 01:51:48;;;;;;;23.65;3.40;;;;;;;5.54;100.00;100529.00;8466637;27;20109;-63
2022/01/06 01:55:48;;;;;;;18.67;2.67;;;;;;;5.51;100.00;100526.53;8459497;28;20395;-63
2022/01/06 01:59:49;;;;;;;20.98;3.40;;;;;;;5.32;100.00;100542.19;8463986;28;20479;-63
2022/01/06 02:03:49;;;;;;;20.45;4.03;;;;;;;5.21;100.00;100540.25;8465820;28;20027;-63
2022/01/06 02:07:49;;;;;;;23.80;3.10;;;;;;;5.21;100.00;100542.06;8465762;28;20089;-63
2022/01/06 02:11:50;;;;;;;25.15;3.67;;;;;;;5.20;100.00;100551.09;8464493;28;20035;-63
2022/01/06 02:15:50;;;;;;;26.95;3.75;;;;;;;5.23;100.00;100540.16;8423325;28;20040;-63
2022/01/06 02:19:53;;;;;;;26.58;4.10;;;;;;;5.24;100.00;100549.91;8440792;28;20031;-63
2022/01/06 02:23:53;;;;;;;16.10;3.45;;;;;;;5.18;100.00;100553.88;8465641;28;20126;-63
2022/01/06 02:27:54;;;;;;;18.95;3.15;;;;;;;5.12;100.00;100548.09;8467523;28;20526;-63
2022/01/06 02:31:57;;;;;;;19.17;3.65;;;;;;;5.08;100.00;100541.22;8468067;28;20043;-63
2022/01/06 02:35:57;;;;;;;18.67;4.28;;;;;;;5.01;100.00;100556.00;8450159;28;20394;-63
2022/01/06 02:39:58;;;;;;;19.25;4.57;;;;;;;5.07;100.00;100563.63;8467810;28;20027;-63
2022/01/06 02:44:00;;;;;;;24.42;5.63;;;;;;;5.17;100.00;100567.38;8468867;28;20031;-63
2022/01/06 02:48:05;;;;;;;24.70;5.35;;;;;;;5.08;100.00;100576.03;8468067;28;20099;-63
2022/01/06 02:52:06;;;;;;;26.15;5.53;;;;;;;5.15;100.00;100569.28;8468332;28;20560;-63
2022/01/06 02:56:06;;;;;;;23.55;5.18;;;;;;;5.23;100.00;100583.03;8449259;28;20450;-63
2022/01/06 03:00:10;;;;;;;22.27;5.82;;;;;;;5.07;100.00;100583.25;8464281;28;20092;-63
2022/01/06 03:04:11;;;;;;;22.85;4.78;;;;;;;4.98;100.00;100588.34;8439529;28;20074;-63
2022/01/06 03:08:12;;;;;;;18.80;5.93;;;;;;;4.92;100.00;100588.78;8452172;28;20046;-63
2022/01/06 03:12:26;;;;;;;22.42;6.63;;;;;;;4.87;100.00;100596.25;8466867;28;20064;-63
2022/01/06 03:16:26;;;;;;;;;;;;;;;4.86;100.00;100598.09;8443525;28;20030;-63
2022/01/06 03:20:29;;;;;;;25.20;5.47;;;;;;;4.82;100.00;100598.41;8446527;28;19916;-63
2022/01/06 03:24:29;;;;;;;26.48;6.13;;;;;;;4.79;100.00;100598.59;8459675;28;20042;-63
2022/01/06 03:28:29;;;;;;;30.05;5.75;;;;;;;4.87;100.00;100601.59;8443624;28;20032;-63
2022/01/06 03:32:30;;;;;;;23.55;6.00;;;;;;;4.89;100.00;100605.03;8432352;28;20047;-63
2022/01/06 03:36:30;;;;;;;21.85;5.13;;;;;;;4.92;100.00;100599.47;8433720;27;20035;-63
2022/01/06 03:40:31;;;;;;;22.25;5.30;;;;;;;4.85;100.00;100598.19;8499716;27;20054;-63
2022/01/06 03:44:32;;;;;;;28.25;5.78;;;;;;;4.77;100.00;100605.88;8500028;27;20114;-63
2022/01/06 03:48:32;;;;;;;26.45;5.10;;;;;;;4.69;100.00;100608.19;8499027;27;20031;-63
2022/01/06 03:52:32;;;;;;;33.50;5.57;;;;;;;4.70;100.00;100609.91;8465639;27;20126;-63
2022/01/06 03:56:33;;;;;;;19.77;4.78;;;;;;;4.66;100.00;100619.13;8444447;28;20048;-63
2022/01/06 04:00:33;;;;;;;24.35;5.28;;;;;;;4.66;100.00;100621.81;8435487;28;20044;-63
2022/01/06 04:04:34;;;;;;;29.48;5.55;;;;;;;4.60;100.00;100624.88;8431762;28;20032;-63
2022/01/06 04:08:34;;;;;;;22.30;5.15;;;;;;;4.50;100.00;100621.06;8430889;28;20395;-63
2022/01/06 04:12:36;;;;;;;21.48;4.10;;;;;;;4.43;100.00;100630.44;8431577;28;20032;-63
2022/01/06 04:16:39;;;;;;;18.65;4.30;;;;;;;4.43;100.00;100634.00;8454622;28;20531;-63
2022/01/06 04:20:39;;;;;;;25.52;4.38;;;;;;;4.44;100.00;100645.53;8464831;28;20099;-63
2022/01/06 04:24:40;;;;;;;30.38;5.00;;;;;;;4.42;100.00;100644.81;8464059;28;20089;-63
2022/01/06 04:28:41;;;;;;;31.30;5.90;;;;;;;4.41;100.00;100645.75;8428972;28;20027;-63
2022/01/06 04:32:42;;;;;;;16.73;3.42;;;;;;;4.39;100.00;100647.69;8464384;28;20042;-63
2022/01/06 04:36:48;;;;;;;24.00;4.03;;;;;;;4.37;100.00;100650.44;8455678;27;20031;-63
2022/01/06 04:40:48;;;;;;;21.33;4.57;;;;;;;4.36;100.00;100663.94;8498758;27;20038;-63
2022/01/06 04:44:49;;;;;;;21.98;4.65;;;;;;;4.41;100.00;100668.03;8471124;27;20040;-63
2022/01/06 04:48:49;;;;;;;28.70;4.13;;;;;;;4.42;100.00;100668.91;8445786;28;20039;-63
2022/01/06 04:52:50;;;;;;;28.52;4.63;;;;;;;4.41;100.00;100667.16;8463776;28;20036;-63
2022/01/06 04:56:50;;;;;;;21.65;4.25;;;;;;;4.39;100.00;100669.09;8462816;28;20507;-63
2022/01/06 05:00:50;;;;;;;20.63;4.68;;;;;;;4.36;100.00;100680.00;8462941;28;20031;-63
2022/01/06 05:04:51;;;;;;;26.05;4.95;;;;;;;4.28;100.00;100693.84;8464003;28;20034;-63
2022/01/06 05:08:51;;;;;;;26.45;5.03;;;;;;;4.25;100.00;100685.16;8463189;28;20480;-63
2022/01/06 05:12:52;;;;;;;25.23;4.70;;;;;;;4.18;100.00;100692.72;8461931;28;20039;-63
2022/01/06 05:16:55;;;;;;;17.27;4.60;;;;;;;4.20;100.00;100689.94;8436014;28;20032;-63
2022/01/06 05:20:56;;;;;;;32.10;5.93;;;;;;;4.14;100.00;100701.88;8448050;28;20051;-63
2022/01/06 05:24:56;;;;;;;29.77;5.50;;;;;;;4.19;100.00;100694.44;8463154;28;20027;-63
2022/01/06 05:28:57;;;;;;;16.90;4.03;;;;;;;4.29;100.00;100700.03;8463527;28;20085;-63
2022/01/06 05:32:57;;;;;;;30.75;6.65;;;;;;;4.37;100.00;100703.97;8460287;28;20048;-63
2022/01/06 05:36:57;;;;;;;24.55;5.38;;;;;;;4.40;100.00;100713.63;8463132;27;20031;-63
2022/01/06 05:40:58;;;;;;;21.30;5.57;;;;;;;4.38;100.00;100715.53;8441815;28;20392;-63
2022/01/06 05:44:58;;;;;;;21.65;4.28;;;;;;;4.31;100.00;100720.41;8435451;28;20028;-63
2022/01/06 05:48:59;;;;;;;22.08;5.68;;;;;;;4.27;100.00;100718.03;8437239;28;20043;-63
2022/01/06 05:52:59;;;;;;;32.13;5.95;;;;;;;4.30;100.00;100723.19;8468723;28;20040;-63
2022/01/06 05:56:59;;;;;;;19.90;5.57;;;;;;;4.29;100.00;100737.50;8441605;28;20051;-63
2022/01/06 06:01:00;;;;;;;29.40;5.97;;;;;;;4.30;100.00;100734.72;8449861;28;20035;-63
2022/01/06 06:05:00;;;;;;;36.72;5.20;;;;;;;4.24;100.00;100745.81;8463294;28;20050;-63
2022/01/06 06:09:01;;;;;;;29.65;7.53;;;;;;;4.24;100.00;100744.97;8467801;28;20112;-63
2022/01/06 06:13:01;;;;;;;28.27;6.78;;;;;;;4.24;100.00;100753.00;8467850;28;20063;-63
2022/01/06 06:17:02;;;;;;;25.08;6.38;;;;;;;4.27;100.00;100758.16;8430564;28;20035;-63
2022/01/06 06:21:03;;;;;;;28.15;5.55;;;;;;;4.26;100.00;100775.16;8453661;27;20036;-63
2022/01/06 06:25:04;;;;;;;23.90;6.07;;;;;;;4.18;100.00;100772.09;8450181;28;20089;-63
2022/01/06 06:29:04;;;;;;;25.63;6.75;;;;;;;4.18;100.00;100774.78;8455101;28;20036;-63
2022/01/06 06:33:05;;;;;;;26.23;7.13;;;;;;;4.11;100.00;100782.31;8453412;28;20040;-63
2022/01/06 06:37:05;;;;;;;35.05;8.38;;;;;;;4.07;100.00;100770.97;8452047;27;20501;-63
2022/01/06 06:41:06;;;;;;;30.98;8.02;;;;;;;4.09;100.00;100769.03;8430075;28;20074;-63
2022/01/06 06:45:08;;;;;;;34.08;7.72;;;;;;;4.02;100.00;100782.88;8435047;28;20039;-63
2022/01/06 06:49:08;;;;;;;26.67;8.77;;;;;;;4.01;100.00;100784.72;8432122;28;20028;-63
2022/01/06 06:53:09;;;;;;;34.25;8.65;;;;;;;4.00;100.00;100779.44;8432677;28;20036;-63
2022/01/06 06:57:09;;;;;;;37.38;10.57;;;;;;;4.03;100.00;100787.28;8443206;28;20059;-63
2022/01/06 07:01:10;;;;;;;26.30;8.35;;;;;;;4.01;100.00;100797.22;8434439;28;20044;-63
2022/01/06 07:05:10;;;;;;;30.00;8.27;;;;;;;4.04;100.00;100797.03;8442680;28;20040;-63
2022/01/06 07:09:11;;;;;;;30.20;9.20;;;;;;;4.09;100.00;100806.47;8440218;28;20035;-63
2022/01/06 07:13:16;;;;;;;35.78;9.85;;;;;;;4.18;100.00;100818.47;8453462;28;20044;-63
2022/01/06 07:17:17;;;;;;;28.58;8.70;;;;;;;4.29;100.00;100828.47;8428603;28;20044;-63
2022/01/06 07:21:17;;;;;;;29.80;9.23;;;;;;;4.32;100.00;100833.66;8432821;28;20065;-63
2022/01/06 07:25:18;;;;;;;31.08;7.60;;;;;;;4.38;100.00;100838.63;8434350;27;20039;-63
2022/01/06 07:29:18;;;;;;;32.60;7.72;;;;;;;4.43;100.00;100842.78;8436251;28;20044;-63
2022/01/06 07:33:19;;;;;;;28.67;7.65;;;;;;;4.44;100.00;100851.63;8438316;28;20070;-63
2022/01/06 07:37:19;;;;;;;27.75;7.18;;;;;;;4.49;100.00;100852.22;8446564;27;20376;-63
2022/01/06 07:41:20;;;;;;;33.15;6.88;;;;;;;4.52;100.00;100857.41;8447385;28;20039;-63
2022/01/06 07:45:20;;;;;;;33.70;8.13;;;;;;;4.50;100.00;100859.28;8429447;28;20047;-63
2022/01/06 07:49:21;;;;;;;30.33;7.05;;;;;;;4.43;100.00;100866.00;8431379;28;20047;-63
2022/01/06 07:53:21;;;;;;;20.90;6.15;;;;;;;4.42;100.00;100872.31;8430079;28;20484;-63
2022/01/06 07:57:22;;;;;;;30.90;6.90;;;;;;;4.34;100.00;100880.78;8431499;28;20419;-63
2022/01/06 08:01:23;;;;;;;30.15;7.03;;;;;;;4.34;100.00;100891.50;8428496;28;20043;-63
2022/01/06 08:05:26;;;;;;;31.83;7.80;;;;;;;4.30;100.00;100894.44;8438258;28;20042;-63
2022/01/06 08:09:27;;;;;;;35.40;8.25;;;;;;;4.31;100.00;100896.16;8427243;28;20108;-63
2022/01/06 08:13:27;;;;;;;37.78;8.55;;;;;;;4.30;100.00;100899.81;8432054;28;20040;-63
2022/01/06 08:17:28;;;;;;;35.20;8.80;;;;;;;4.35;100.00;100911.06;8418063;28;20384;-63
2022/01/06 08:21:28;;;;;;;33.80;8.07;;;;;;;4.44;100.00;100907.84;8440640;28;20109;-63
2022/01/06 08:25:29;;;;;;;39.35;9.05;;;;;;;4.62;100.00;100912.09;8415533;27;20705;-63
2022/01/06 08:29:29;;;;;;;30.33;8.52;;;;;;;4.88;100.00;100914.88;8439070;28;20539;-63
2022/01/06 08:33:29;;;;;;;22.67;7.60;;;;;;;5.16;100.00;100930.94;8440404;28;20117;-63
2022/01/06 08:37:30;;;;;;;31.23;8.00;;;;;;;5.29;100.00;100933.72;8434544;27;20407;-63
2022/01/06 08:41:30;;;;;;;29.75;7.72;;;;;;;5.39;100.00;100934.88;8426164;28;20039;-63
2022/01/06 08:45:32;;;;;;;29.60;8.55;;;;;;;5.42;100.00;100942.72;8425910;28;20031;-64
2022/01/06 08:49:34;;;;;;;31.70;9.82;;;;;;;5.36;100.00;100938.59;8450047;28;20036;-63
2022/01/06 08:53:34;;;;;;;34.15;9.82;;;;;;;5.44;100.00;100943.50;8433228;28;20106;-64
2022/01/06 08:57:35;;;;;;;41.38;10.20;;;;;;;5.62;100.00;100947.66;8430623;28;20565;-63
2022/01/06 09:01:35;;;;;;;38.88;8.65;;;;;;;5.33;100.00;100948.66;8407432;28;20047;-63
2022/01/06 09:05:37;;;;;;;33.38;9.77;;;;;;;5.09;100.00;100944.84;8424790;28;20057;-63
2022/01/06 09:09:39;;;;;;;37.50;9.13;;;;;;;4.88;100.00;100946.19;8447243;28;20090;-63
2022/01/06 09:13:41;;;;;;;29.77;9.80;;;;;;;4.84;100.00;100939.28;8436588;28;20028;-63
2022/01/06 09:17:42;;;;;;;40.92;11.13;;;;;;;4.84;100.00;100944.63;8444896;28;20036;-63
2022/01/06 09:21:43;;;;;;;32.50;10.60;;;;;;;4.89;100.00;100947.91;8449938;28;20047;-63
2022/01/06 09:25:43;;;;;;;46.83;11.88;;;;;;;5.33;100.00;100957.56;8442098;28;20075;-63
2022/01/06 09:29:44;;;;;;;30.83;10.35;;;;;;;6.98;95.54;100945.50;8445077;28;20044;-63
2022/01/06 09:33:44;;;;;;;27.40;8.80;;;;;;;8.14;87.56;100949.56;8457686;28;20499;-64
2022/01/06 09:37:45;;;;;;;36.45;9.27;;;;;;;9.18;83.34;100953.09;8449470;27;20101;-64
2022/01/06 09:41:45;;;;;;;26.60;7.70;;;;;;;9.49;81.34;100957.78;8421457;28;20071;-64
2022/01/06 09:45:46;;;;;;;28.42;8.25;;;;;;;9.48;80.94;100954.19;8435604;28;20036;-64
2022/01/06 09:49:46;;;;;;;23.67;7.97;;;;;;;8.40;83.56;100960.13;8421352;28;20039;-64
2022/01/06 09:53:48;;;;;;;32.30;9.18;;;;;;;8.09;86.83;100972.28;8431668;28;20028;-64
2022/01/06 09:57:57;;;;;;;31.45;9.40;;;;;;;7.79;88.34;100973.69;8432861;28;20032;-64
2022/01/06 10:01:58;;;;;;;28.35;9.32;;;;;;;7.80;89.29;100970.88;8454743;28;20033;-64
2022/01/06 10:06:10;;;;;;;38.50;9.70;;;;;;;9.28;83.53;100968.44;8442423;28;20514;-64
2022/01/06 10:10:13;;;;;;;22.80;8.45;;;;;;;10.21;79.98;100967.97;8428803;28;20079;-64
2022/01/06 10:14:20;;;;;;;18.27;7.93;;;;;;;11.26;74.51;100966.09;8447159;28;20036;-64
2022/01/06 10:18:20;;;;;;;23.67;8.57;;;;;;;11.52;73.26;100970.94;8431354;28;20028;-64
2022/01/06 10:22:21;;;;;;;28.75;8.70;;;;;;;11.90;71.29;100976.53;8447792;28;20443;-64
2022/01/06 10:26:22;;;;;;;24.23;8.70;;;;;;;12.60;70.74;100964.66;8435469;28;20028;-64
2022/01/06 10:30:26;;;;;;;25.48;8.07;;;;;;;12.79;68.69;100968.25;8444778;28;20040;-64
2022/01/06 10:34:32;;;;;;;19.77;7.45;;;;;;;12.05;69.99;100968.03;8459172;28;20036;-64
2022/01/06 10:38:33;;;;;;;24.40;7.68;;;;;;;12.70;70.12;100970.94;8455401;27;20036;-64
2022/01/06 10:42:36;;;;;;;24.08;7.40;;;;;;;13.49;67.99;100966.00;8451771;28;20046;-64
2022/01/06 10:46:42;;;;;;;23.92;7.43;;;;;;;13.97;65.15;100970.34;8442045;28;20090;-64
2022/01/06 10:50:42;;;;;;;21.05;7.80;;;;;;;13.50;66.34;100972.25;8441325;28;20054;-64
2022/01/06 10:54:43;;;;;;;16.92;5.90;;;;;;;13.55;65.15;100969.97;8446180;28;20032;-64
2022/01/06 10:58:45;;;;;;;24.58;6.18;;;;;;;13.55;64.75;100964.53;8439413;28;20224;-64
2022/01/06 11:02:46;;;;;;;26.05;6.25;;;;;;;11.90;68.41;100962.97;8450929;28;20044;-64
2022/01/06 11:06:46;;;;;;;21.08;6.78;;;;;;;9.89;75.77;100967.91;8441782;28;20028;-64
2022/01/06 11:11:01;;;;;;;25.88;7.25;;;;;;;10.03;76.74;100953.25;8436596;28;20399;-64
2022/01/06 11:15:02;;;;;;;18.67;5.70;;;;;;;11.83;71.92;100960.97;8447459;28;20048;-64
2022/01/06 11:19:03;;;;;;;18.17;6.68;;;;;;;12.70;67.78;100954.66;8435674;28;20047;-64
2022/01/06 11:23:03;;;;;;;19.13;7.10;;;;;;;12.51;68.24;100949.25;8436692;28;20050;-64
2022/01/06 11:27:10;;;;;;;24.95;6.55;;;;;;;12.76;67.10;100959.53;8437975;28;20059;-65
2022/01/06 11:31:17;;;;;;;21.27;6.15;;;;;;;12.97;66.35;100971.06;8444681;28;20043;-64
2022/01/06 11:35:19;;;;;;;20.98;7.18;;;;;;;12.67;66.27;100971.22;8435900;28;20101;-64
2022/01/06 11:39:27;;;;;;;25.00;9.13;;;;;;;12.70;66.57;100966.38;8452296;27;20051;-64
2022/01/06 11:43:45;;;;;;;28.92;7.97;;;;;;;12.85;65.72;100975.81;8438426;28;20037;-64
2022/01/06 11:47:46;;;;;;;26.50;7.20;;;;;;;13.21;67.31;100976.94;8444828;27;20047;-64
2022/01/06 11:51:46;;;;;;;22.55;6.15;;;;;;;13.47;65.32;100973.41;8452699;28;20044;-64
2022/01/06 11:55:47;;;;;;;28.13;8.45;;;;;;;13.50;65.30;100972.25;8449124;28;20044;-64
2022/01/06 11:59:48;;;;;;;28.98;6.70;;;;;;;13.15;65.00;100961.22;8431855;28;20127;-64
2022/01/06 12:03:49;;;;;;;22.10;6.80;;;;;;;12.85;66.84;100966.78;8431486;28;20039;-64
2022/01/06 12:07:51;;;;;;;24.55;8.25;;;;;;;12.80;66.53;100967.22;8434958;28;20422;-64
2022/01/06 12:12:02;;;;;;;24.05;9.30;;;;;;;12.48;67.34;100965.81;8430247;28;20047;-64
2022/01/06 12:16:02;;;;;;;24.02;6.28;;;;;;;11.75;69.18;100963.50;8449074;28;20027;-64
2022/01/06 12:20:06;;;;;;;31.05;9.82;;;;;;;10.96;72.52;100966.94;8418731;28;20039;-64
2022/01/06 12:24:08;;;;;;;26.60;11.30;;;;;;;10.21;75.12;100973.38;8431250;28;20044;-64
2022/01/06 12:28:10;;;;;;;25.58;8.10;;;;;;;9.58;76.84;100973.22;8425129;28;20020;-64
2022/01/06 12:32:12;;;;;;;26.45;9.43;;;;;;;8.80;79.29;100974.97;8426969;28;20055;-64
2022/01/06 12:36:16;;;;;;;28.00;11.23;;;;;;;8.83;80.27;100979.25;8437892;27;20023;-64
2022/01/06 12:40:17;;;;;;;48.28;14.60;;;;;;;8.44;81.37;100958.03;8422922;28;20624;-64
2022/01/06 12:44:22;;;;;;;35.45;12.93;;;;;;;8.43;81.29;100967.97;8425899;28;20440;-64
2022/01/06 12:48:30;;;;;;;27.00;9.38;;;;;;;8.49;81.83;100969.31;8430201;28;20101;-64
2022/01/06 12:52:30;;;;;;;23.25;8.40;;;;;;;8.40;83.61;100967.31;8431132;28;20344;-64
2022/01/06 12:56:34;;;;;;;28.27;9.02;;;;;;;8.52;83.46;100963.72;8440917;28;20052;-64
2022/01/06 13:00:35;;;;;;;17.45;7.88;;;;;;;8.70;82.86;100962.31;8425894;28;20036;-64
2022/01/06 13:04:40;;;;;;;27.30;8.23;;;;;;;8.74;81.58;100953.88;8449255;28;20120;-64
2022/01/06 13:08:50;;;;;;;23.02;7.55;;;;;;;8.78;81.60;100951.81;8435507;28;20070;-64
2022/01/06 13:13:02;;;;;;;31.17;9.63;;;;;;;8.59;81.46;100948.78;8435777;28;20074;-64
2022/01/06 13:17:26;;;;;;;23.05;8.20;;;;;;;8.49;82.85;100942.38;8447535;27;20032;-64
2022/01/06 13:21:33;;;;;;;30.52;7.88;;;;;;;8.40;82.13;100940.38;8433095;28;20403;-64
2022/01/06 13:25:35;;;;;;;26.05;7.50;;;;;;;8.38;82.73;100931.59;8425202;28;20032;-64
2022/01/06 13:29:41;;;;;;;30.83;8.02;;;;;;;8.31;81.57;100933.88;8426887;28;20571;-64
2022/01/06 13:33:41;;;;;;;23.27;7.18;;;;;;;8.46;81.26;100934.53;8424238;28;20124;-64
2022/01/06 13:37:42;;;;;;;22.40;7.85;;;;;;;8.48;81.48;100930.72;8435660;27;20040;-64
2022/01/06 13:41:46;;;;;;;24.67;7.82;;;;;;;8.51;81.42;100927.81;8440322;28;20043;-64
2022/01/06 13:45:49;;;;;;;28.63;7.97;;;;;;;8.47;80.65;100933.56;8429225;28;20048;-64
2022/01/06 13:51:05;;;;;;;21.23;7.35;;;;;;;8.54;81.51;100930.25;8436204;28;20036;-64
2022/01/06 13:54:11;;;;;;;21.88;7.32;;;;;;;8.35;80.49;100937.22;8426911;28;20396;-64
2022/01/06 13:58:11;;;;;;;22.80;6.13;;;;;;;8.03;80.80;100934.19;8445169;27;20055;-64
2022/01/06 14:02:13;;;;;;;15.13;6.28;;;;;;;7.78;82.18;100935.13;8427911;28;20065;-64
2022/01/06 14:06:17;;;;;;;22.80;7.53;;;;;;;7.70;83.04;100940.25;8447050;28;20058;-64
2022/01/06 14:10:17;;;;;;;22.77;7.77;;;;;;;7.62;82.94;100934.56;8433985;28;20038;-64
2022/01/06 14:14:18;;;;;;;28.13;7.40;;;;;;;7.59;83.61;100929.41;8441208;28;20032;-64
2022/01/06 14:18:19;;;;;;;28.13;8.05;;;;;;;7.46;85.04;100939.34;8434071;28;20036;-64
2022/01/06 14:22:19;;;;;;;22.88;6.68;;;;;;;7.50;83.16;100940.81;8447500;28;20036;-64
2022/01/06 14:26:27;;;;;;;21.92;6.40;;;;;;;7.51;83.19;100936.31;8437119;28;20032;-64
2022/01/06 14:30:28;;;;;;;19.65;6.15;;;;;;;7.47;84.81;100950.94;8438304;28;20499;-64
2022/01/06 14:34:28;;;;;;;27.48;5.80;;;;;;;7.35;84.41;100947.31;8434824;28;20476;-64
2022/01/06 14:38:28;;;;;;;14.27;5.47;;;;;;;7.26;85.24;100947.94;8447884;27;20040;-64
2022/01/06 14:42:29;;;;;;;23.08;5.65;;;;;;;7.16;85.81;100946.03;8441605;28;20032;-64
2022/01/06 14:46:29;;;;;;;23.75;5.85;;;;;;;7.07;85.77;100946.66;8445726;28;20048;-64
2022/01/06 14:50:30;;;;;;;16.42;5.35;;;;;;;6.97;85.40;100951.84;8439269;28;20042;-64
2022/01/06 14:54:31;;;;;;;20.48;5.45;;;;;;;6.98;84.31;100948.19;8450103;27;20555;-64
2022/01/06 14:58:31;;;;;;;24.95;6.60;;;;;;;6.88;85.35;100947.13;8452795;27;20503;-64
2022/01/06 15:02:32;;;;;;;27.88;7.45;;;;;;;6.75;85.70;100956.13;8442126;28;20043;-64
2022/01/06 15:06:32;;;;;;;21.52;6.97;;;;;;;6.68;87.48;100947.63;8436683;28;20044;-64
2022/01/06 15:10:33;;;;;;;20.70;6.45;;;;;;;6.54;88.03;100947.72;8436058;28;20028;-64
2022/01/06 15:14:33;;;;;;;19.25;6.10;;;;;;;6.29;88.35;100953.03;8434137;28;20027;-64
2022/01/06 15:18:33;;;;;;;19.70;7.28;;;;;;;6.10;90.08;100957.88;8449975;28;20118;-64
2022/01/06 15:22:34;;;;;;;25.10;7.32;;;;;;;6.10;90.00;100957.88;8439821;28;20118;-64
2022/01/06 15:26:35;;;;;;;25.75;7.75;;;;;;;5.86;90.23;100959.53;8432270;28;20510;-64
2022/01/06 15:30:37;;;;;;;24.60;8.07;;;;;;;5.71;91.99;100964.00;8446036;28;20093;-64
2022/01/06 15:34:37;;;;;;;26.77;8.07;;;;;;;5.46;92.36;100955.81;8449517;28;20447;-64
2022/01/06 15:38:37;;;;;;;31.20;9.25;;;;;;;5.62;93.60;100961.06;8427660;27;20040;-64
2022/01/06 15:42:38;;;;;;;24.73;8.35;;;;;;;5.53;95.96;100967.03;8435396;28;20164;-64
2022/01/06 15:46:40;;;;;;;28.08;10.00;;;;;;;5.41;96.19;100968.69;8425519;28;20032;-64
2022/01/06 15:50:40;;;;;;;20.63;8.88;;;;;;;5.27;96.03;100968.69;8434312;28;20064;-64
2022/01/06 15:54:41;;;;;;;26.98;8.07;;;;;;;5.16;95.34;100975.66;8413788;28;20040;-64
2022/01/06 15:58:42;;;;;;;29.30;8.73;;;;;;;5.08;96.84;100986.84;8429311;27;20104;-66
2022/01/06 16:07:03;;;;;;;27.98;13.07;;;;;;;5.34;94.79;100986.09;8417858;28;20044;-66
2022/01/06 16:11:04;;;;;;;40.22;14.50;;;;;;;5.37;93.42;100977.84;8419634;28;20070;-66
2022/01/06 16:15:06;;;;;;;35.22;9.60;;;;;;;5.18;94.47;100979.09;8425247;28;20115;-66
2022/01/06 16:19:06;;;;;;;26.15;7.78;;;;;;;5.21;94.52;100985.13;8425648;28;20075;-66
2022/01/06 16:23:07;;;;;;;32.25;7.85;;;;;;;5.14;94.88;100974.88;8429458;28;20495;-66
2022/01/06 16:27:08;;;;;;;28.90;8.60;;;;;;;5.10;94.75;100982.28;8440110;28;20082;-66
2022/01/06 16:31:47;;;;;;;25.33;6.72;;;;;;;5.24;93.00;100976.03;8427458;28;20044;-65
2022/01/06 16:35:49;;;;;;;30.35;10.23;;;;;;;5.26;92.20;100984.84;8424210;27;20052;-65
2022/01/06 16:39:51;;;;;;;24.17;8.10;;;;;;;5.12;92.52;100982.19;8407047;28;20531;-65
2022/01/06 16:43:52;;;;;;;35.38;11.50;;;;;;;5.06;93.21;100983.41;8419132;28;20032;-65
2022/01/06 16:47:52;;;;;;;27.13;10.13;;;;;;;4.83;93.98;100981.28;8401090;28;20036;-65
2022/01/06 16:51:54;;;;;;;32.53;14.82;;;;;;;4.85;94.07;100978.50;8431807;28;20036;-65
2022/01/06 16:55:54;;;;;;;29.67;12.57;;;;;;;4.66;94.43;100978.75;8419885;28;20098;-65
2022/01/06 16:59:55;;;;;;;27.45;9.82;;;;;;;4.52;96.57;100992.13;8435665;28;20135;-65
2022/01/06 17:03:55;;;;;;;21.42;8.18;;;;;;;4.46;95.34;100981.78;8423587;28;20302;-65
2022/01/06 17:07:57;;;;;;;29.20;9.63;;;;;;;4.42;95.52;100976.69;8401774;28;20765;-65
2022/01/06 17:11:57;;;;;;;26.90;10.40;;;;;;;4.30;97.82;100985.44;8433975;28;20039;-65
2022/01/06 17:15:58;;;;;;;28.60;11.85;;;;;;;4.14;98.13;100979.25;8423149;28;20038;-65
2022/01/06 17:19:58;;;;;;;26.40;8.00;;;;;;;3.81;98.76;100982.91;8434133;28;20372;-65
2022/01/06 17:24:00;;;;;;;32.10;8.98;;;;;;;3.58;99.41;100988.69;8420320;28;20336;-66
2022/01/06 17:28:01;;;;;;;32.50;8.35;;;;;;;3.47;100.00;100983.06;8427657;28;20046;-65
2022/01/06 17:32:03;;;;;;;22.30;7.82;;;;;;;3.36;100.00;100985.44;8410307;28;20055;-65
2022/01/06 17:36:05;;;;;;;22.83;8.68;;;;;;;3.77;100.00;100978.69;8455772;27;20100;-65
2022/01/06 17:40:06;;;;;;;27.83;9.35;;;;;;;3.98;98.36;100969.44;8430658;28;20070;-65
2022/01/06 17:44:06;;;;;;;29.90;10.50;;;;;;;4.30;97.26;100975.56;8405206;28;20047;-65
2022/01/06 17:48:06;;;;;;;22.95;9.10;;;;;;;4.40;96.54;100971.44;8432250;27;20066;-65
2022/01/06 17:52:08;;;;;;;23.63;9.65;;;;;;;4.46;96.23;100970.19;8423891;27;20174;-65
2022/01/06 17:56:08;;;;;;;21.10;7.45;;;;;;;4.43;95.91;100975.72;8441177;28;20093;-65
2022/01/06 18:00:09;;;;;;;26.85;7.60;;;;;;;4.54;95.56;100973.28;8428734;28;20032;-65
2022/01/06 18:04:10;;;;;;;24.40;8.05;;;;;;;4.53;95.09;100982.25;8427255;28;20032;-65
2022/01/06 18:12:23;;;;;;;21.23;7.78;;;;;;;4.57;95.08;100973.09;8441494;27;20183;-65
2022/01/06 18:16:26;;;;;;;26.90;7.55;;;;;;;4.49;95.52;100967.34;8441359;27;20081;-65
2022/01/06 18:20:27;;;;;;;31.77;9.60;;;;;;;4.45;95.49;100971.16;8437846;27;20043;-65
2022/01/06 18:24:28;;;;;;;21.17;8.15;;;;;;;4.35;95.99;100977.97;8447453;27;20044;-65
2022/01/06 18:28:28;;;;;;;24.35;8.27;;;;;;;4.18;97.96;100987.03;8424783;27;20302;-65
2022/01/06 18:32:29;;;;;;;20.65;8.27;;;;;;;4.08;98.11;100985.81;8426554;27;20032;-65
2022/01/06 18:36:30;;;;;;;25.88;7.78;;;;;;;4.05;97.47;100985.97;8434424;27;20407;-65
2022/01/06 18:40:31;;;;;;;26.77;8.07;;;;;;;4.06;98.10;100988.56;8434798;27;20092;-65
2022/01/06 18:44:31;;;;;;;23.08;8.02;;;;;;;4.03;97.63;100988.75;8423506;27;20035;-65